Time;durP1;ratioP1;P1;durP2;ratioP2;P2;SDS_P1;SDS_P2;PMS_P1;PMS_P2;Temp;Humidity;BMP_temperature;BMP_pressure;BME280_temperature;BME280_humidity;BME280_pressure;Samples;Min_cycle;Max_cycle;Signal;HPM_P1;HPM_P2
2022/08/17 00:01:37;;;;;;;;;;;25.30;62.90;;;;;;5081419;28;19916;-68
2022/08/17 00:04:03;;;;;;;;;;;25.30;62.90;;;;;;5091981;28;20030;-61
2022/08/17 00:06:30;;;;;;;;;;;25.30;62.90;;;;;;5089800;28;19928;-60
2022/08/17 00:08:57;;;;;;;;;;;25.30;62.90;;;;;;5089179;28;19932;-62
2022/08/17 00:11:24;;;;;;;;;;;25.30;62.80;;;;;;5090008;28;19954;-62
2022/08/17 00:13:53;;;;;;;;;;;25.20;62.80;;;;;;5089781;28;20404;-68
2022/08/17 00:16:21;;;;;;;;;;;25.30;62.80;;;;;;5089601;28;19912;-64
2022/08/17 00:18:47;;;;;;;;;;;25.30;62.70;;;;;;5090764;28;19911;-61
2022/08/17 00:21:14;;;;;;;;;;;25.30;62.70;;;;;;5088094;28;19912;-61
2022/08/17 00:23:40;;;;;;;;;;;25.30;62.70;;;;;;5090676;28;19920;-60
2022/08/17 00:26:06;;;;;;;;;;;25.30;62.70;;;;;;5089213;28;19908;-60
2022/08/17 00:28:31;;;;;;;;;;;25.20;62.70;;;;;;5090751;28;19916;-61
2022/08/17 00:30:58;;;;;;;;;;;25.30;62.90;;;;;;5107033;28;19943;-61
2022/08/17 00:33:25;;;;;;;;;;;25.20;62.80;;;;;;5112019;28;20406;-68
2022/08/17 00:35:51;;;;;;;;;;;25.20;63.00;;;;;;5100164;28;20385;-68
2022/08/17 00:38:17;;;;;;;;;;;25.10;63.60;;;;;;5112225;28;20453;-68
2022/08/17 00:40:47;;;;;;;;;;;25.10;63.00;;;;;;5111840;28;20007;-68
2022/08/17 00:43:15;;;;;;;;;;;25.10;63.10;;;;;;5112206;28;19912;-68
2022/08/17 00:45:41;;;;;;;;;;;25.10;63.10;;;;;;5105409;28;19951;-68
2022/08/17 00:48:06;;;;;;;;;;;25.10;63.10;;;;;;5092888;28;19950;-68
2022/08/17 00:50:33;;;;;;;;;;;25.10;63.10;;;;;;5094754;28;19916;-68
2022/08/17 00:52:59;;;;;;;;;;;25.10;63.20;;;;;;5111849;28;20394;-68
2022/08/17 00:55:24;;;;;;;;;;;25.10;63.20;;;;;;5110989;28;19923;-68
2022/08/17 00:57:52;;;;;;;;;;;25.00;63.20;;;;;;5106372;28;19908;-68
2022/08/17 01:00:26;;;;;;;;;;;25.10;63.20;;;;;;5095023;28;19922;-68
2022/08/17 01:03:00;;;;;;;;;;;25.00;63.30;;;;;;5112001;28;20125;-62
2022/08/17 01:05:28;;;;;;;;;;;25.00;63.30;;;;;;5099839;28;19912;-61
2022/08/17 01:07:54;;;;;;;;;;;25.00;63.20;;;;;;5089410;28;20375;-61
2022/08/17 01:10:21;;;;;;;;;;;25.00;63.30;;;;;;5104407;28;19922;-62
2022/08/17 01:12:48;;;;;;;;;;;24.90;63.40;;;;;;5111631;28;20017;-61
2022/08/17 01:15:14;;;;;;;;;;;24.90;63.40;;;;;;5110722;28;19973;-61
2022/08/17 01:17:39;;;;;;;;;;;24.90;63.50;;;;;;5102187;28;19931;-61
2022/08/17 01:20:05;;;;;;;;;;;24.90;63.50;;;;;;5103591;28;20413;-61
2022/08/17 01:22:31;;;;;;;;;;;24.90;63.50;;;;;;5109840;28;19922;-62
2022/08/17 01:24:58;;;;;;;;;;;24.80;63.50;;;;;;5110379;28;19916;-62
2022/08/17 01:27:25;;;;;;;;;;;24.80;63.50;;;;;;5111312;28;20278;-62
2022/08/17 01:29:56;;;;;;;;;;;24.80;63.70;;;;;;5095368;28;19911;-62
2022/08/17 01:32:22;;;;;;;;;;;24.70;63.60;;;;;;5106967;28;19919;-68
2022/08/17 01:34:49;;;;;;;;;;;24.80;63.80;;;;;;5109565;28;19916;-62
2022/08/17 01:37:15;;;;;;;;;;;24.70;63.80;;;;;;5106762;28;19927;-61
2022/08/17 01:39:49;;;;;;;;;;;24.70;63.80;;;;;;5086022;28;20006;-61
2022/08/17 01:42:14;;;;;;;;;;;24.70;63.80;;;;;;5109832;28;19908;-62
2022/08/17 01:44:40;;;;;;;;;;;24.70;63.80;;;;;;5103782;28;19912;-61
2022/08/17 01:47:05;;;;;;;;;;;24.70;63.80;;;;;;5105765;28;19938;-62
2022/08/17 01:49:31;;;;;;;;;;;24.70;63.70;;;;;;5088907;28;19920;-61
2022/08/17 01:51:56;;;;;;;;;;;24.70;63.80;;;;;;5104379;28;19920;-68
2022/08/17 01:54:23;;;;;;;;;;;24.70;63.90;;;;;;5110044;28;19923;-68
2022/08/17 01:56:50;;;;;;;;;;;24.70;63.90;;;;;;5109021;28;20434;-68
2022/08/17 01:59:17;;;;;;;;;;;24.70;63.80;;;;;;5111199;28;19907;-68
2022/08/17 02:04:59;;;;;;;;;;;24.70;63.80;;;;;;5038568;22;19933;-68
2022/08/17 02:07:25;;;;;;;;;;;24.70;63.90;;;;;;5062620;28;19921;-62
2022/08/17 02:09:50;;;;;;;;;;;24.60;63.90;;;;;;5075621;28;19959;-62
2022/08/17 02:12:16;;;;;;;;;;;24.60;64.00;;;;;;5076616;28;19912;-62
2022/08/17 02:14:42;;;;;;;;;;;24.50;64.10;;;;;;5079504;28;19927;-62
2022/08/17 02:17:08;;;;;;;;;;;24.50;64.20;;;;;;5070958;28;19920;-61
2022/08/17 02:19:33;;;;;;;;;;;24.50;64.30;;;;;;5068700;28;20371;-61
2022/08/17 02:21:59;;;;;;;;;;;24.50;64.40;;;;;;5087184;28;19912;-61
2022/08/17 02:24:27;;;;;;;;;;;24.40;64.60;;;;;;5083641;28;20163;-61
2022/08/17 02:26:53;;;;;;;;;;;24.40;64.70;;;;;;5082443;28;19920;-61
2022/08/17 02:29:18;;;;;;;;;;;24.40;64.70;;;;;;5075802;28;19909;-61
2022/08/17 02:31:44;;;;;;;;;;;24.30;64.70;;;;;;5089879;28;19919;-68
2022/08/17 02:34:09;;;;;;;;;;;24.30;64.80;;;;;;5061444;28;19927;-61
2022/08/17 02:36:35;;;;;;;;;;;24.20;64.90;;;;;;5074006;28;19916;-62
2022/08/17 02:39:04;;;;;;;;;;;24.20;65.10;;;;;;5084100;28;19919;-62
2022/08/17 02:41:30;;;;;;;;;;;24.10;65.10;;;;;;5083154;28;20016;-61
2022/08/17 02:43:55;;;;;;;;;;;24.10;65.10;;;;;;5068325;28;19924;-61
2022/08/17 02:46:21;;;;;;;;;;;24.10;65.90;;;;;;5073701;28;20355;-61
2022/08/17 02:48:47;;;;;;;;;;;24.10;65.40;;;;;;5083560;28;19931;-61
2022/08/17 02:51:12;;;;;;;;;;;24.00;65.40;;;;;;5084294;28;19912;-62
2022/08/17 02:53:38;;;;;;;;;;;24.00;65.50;;;;;;5090140;28;19916;-61
2022/08/17 02:56:03;;;;;;;;;;;24.00;65.50;;;;;;5089184;28;19920;-62
2022/08/17 02:58:29;;;;;;;;;;;23.90;65.40;;;;;;5075966;28;19961;-68
2022/08/17 03:00:55;;;;;;;;;;;23.90;65.50;;;;;;5081318;28;20315;-61
2022/08/17 03:03:20;;;;;;;;;;;23.90;65.50;;;;;;5090703;28;20267;-61
2022/08/17 03:05:47;;;;;;;;;;;23.90;65.40;;;;;;5064649;28;19935;-61
2022/08/17 03:08:13;;;;;;;;;;;23.90;65.30;;;;;;5089668;28;19948;-61
2022/08/17 03:10:39;;;;;;;;;;;23.90;65.40;;;;;;5081369;28;20015;-61
2022/08/17 03:13:05;;;;;;;;;;;23.90;65.30;;;;;;5086012;28;19913;-61
2022/08/17 03:15:32;;;;;;;;;;;23.90;65.30;;;;;;5075014;28;19963;-61
2022/08/17 03:17:59;;;;;;;;;;;23.90;65.90;;;;;;5081621;28;19944;-61
2022/08/17 03:20:25;;;;;;;;;;;23.90;65.30;;;;;;5088776;28;19916;-68
2022/08/17 03:22:52;;;;;;;;;;;23.90;65.40;;;;;;5088425;28;20386;-61
2022/08/17 03:25:20;;;;;;;;;;;23.90;65.50;;;;;;5083672;28;19943;-61
2022/08/17 03:27:45;;;;;;;;;;;23.90;65.50;;;;;;5078957;28;19908;-68
2022/08/17 03:30:14;;;;;;;;;;;23.90;65.60;;;;;;5089409;28;19919;-68
2022/08/17 03:32:41;;;;;;;;;;;23.90;65.70;;;;;;5076065;28;19912;-68
2022/08/17 03:35:07;;;;;;;;;;;23.90;65.80;;;;;;5080117;28;19927;-62
2022/08/17 03:37:32;;;;;;;;;;;23.90;65.80;;;;;;5088359;28;20249;-62
2022/08/17 03:39:58;;;;;;;;;;;23.90;65.90;;;;;;5083208;28;19923;-68
2022/08/17 03:42:25;;;;;;;;;;;23.90;65.90;;;;;;5075542;28;19916;-62
2022/08/17 03:44:51;;;;;;;;;;;23.90;66.00;;;;;;5079604;28;20391;-62
2022/08/17 03:58:15;;;;;;;;;;;24.00;65.90;;;;;;5077844;28;19946;-67
2022/08/17 04:00:44;;;;;;;;;;;24.00;65.80;;;;;;5082239;28;19919;-67
2022/08/17 04:03:09;;;;;;;;;;;24.00;65.70;;;;;;5071967;28;19921;-67
2022/08/17 04:05:37;;;;;;;;;;;24.00;65.60;;;;;;5070182;28;20390;-61
2022/08/17 04:08:03;;;;;;;;;;;24.10;65.50;;;;;;5070115;28;20006;-68
2022/08/17 04:10:29;;;;;;;;;;;24.00;65.30;;;;;;5068154;28;19931;-68
2022/08/17 04:12:55;;;;;;;;;;;24.10;65.20;;;;;;5066400;28;19932;-67
2022/08/17 04:15:21;;;;;;;;;;;24.10;65.00;;;;;;5074379;28;19916;-67
2022/08/17 04:17:47;;;;;;;;;;;24.10;64.90;;;;;;5076561;28;20574;-68
2022/08/17 04:20:13;;;;;;;;;;;24.10;64.80;;;;;;5085562;28;19962;-67
2022/08/17 04:22:40;;;;;;;;;;;24.00;64.60;;;;;;5093282;28;20062;-67
2022/08/17 04:25:05;;;;;;;;;;;24.10;64.60;;;;;;5080061;28;19923;-60
2022/08/17 04:27:31;;;;;;;;;;;24.00;64.50;;;;;;5092776;28;19908;-60
2022/08/17 04:29:57;;;;;;;;;;;24.00;64.40;;;;;;5088276;28;19920;-60
2022/08/17 04:32:22;;;;;;;;;;;24.00;64.30;;;;;;5092780;28;19961;-60
2022/08/17 04:34:48;;;;;;;;;;;24.10;64.20;;;;;;5077312;28;19920;-60
2022/08/17 04:37:14;;;;;;;;;;;24.00;64.00;;;;;;5088293;28;19981;-61
2022/08/17 04:42:05;;;;;;;;;;;24.10;63.80;;;;;;5092728;28;20251;-61
2022/08/17 04:42:25;;;;;;;;;;;24.10;63.70;;;;;;5092436;28;19942;-61
2022/08/17 04:44:50;;;;;;;;;;;24.10;63.60;;;;;;5069453;28;19995;-60
2022/08/17 04:47:16;;;;;;;;;;;24.10;63.50;;;;;;5087133;28;20283;-63
2022/08/17 04:49:41;;;;;;;;;;;24.10;63.40;;;;;;5091630;28;19965;-62
2022/08/17 04:52:07;;;;;;;;;;;24.20;63.40;;;;;;5092098;28;20321;-62
2022/08/17 04:54:32;;;;;;;;;;;24.20;63.20;;;;;;5085239;28;20047;-62
2022/08/17 04:56:58;;;;;;;;;;;24.20;63.20;;;;;;5089521;28;19962;-62
2022/08/17 04:59:23;;;;;;;;;;;24.20;63.20;;;;;;5091283;28;20401;-62
2022/08/17 05:01:49;;;;;;;;;;;24.10;63.10;;;;;;5092234;28;19966;-61
2022/08/17 05:04:17;;;;;;;;;;;24.20;63.10;;;;;;5089249;28;19934;-62
2022/08/17 05:06:43;;;;;;;;;;;24.20;63.00;;;;;;5076840;28;19981;-62
2022/08/17 05:09:09;;;;;;;;;;;24.20;62.90;;;;;;5069962;28;19920;-62
2022/08/17 05:11:35;;;;;;;;;;;24.20;62.80;;;;;;5090935;28;19926;-62
2022/08/17 05:14:00;;;;;;;;;;;24.20;62.80;;;;;;5085087;28;19912;-62
2022/08/17 05:16:26;;;;;;;;;;;24.20;62.70;;;;;;5057797;28;19920;-66
2022/08/17 05:18:52;;;;;;;;;;;24.20;62.70;;;;;;5086909;28;20355;-67
2022/08/17 05:21:18;;;;;;;;;;;24.20;62.80;;;;;;5091311;28;19924;-61
2022/08/17 05:23:44;;;;;;;;;;;24.20;62.80;;;;;;5091655;28;19920;-67
2022/08/17 05:26:11;;;;;;;;;;;24.20;62.80;;;;;;5081468;28;20274;-67
2022/08/17 05:28:36;;;;;;;;;;;24.20;62.90;;;;;;5087366;28;19919;-61
2022/08/17 05:31:02;;;;;;;;;;;24.30;63.00;;;;;;5090945;28;20361;-61
2022/08/17 05:33:29;;;;;;;;;;;24.20;63.00;;;;;;5091261;28;19912;-61
2022/08/17 05:35:56;;;;;;;;;;;24.20;63.30;;;;;;5081642;28;19921;-61
2022/08/17 05:38:22;;;;;;;;;;;24.10;63.60;;;;;;5073423;28;20002;-61
2022/08/17 05:40:48;;;;;;;;;;;24.00;63.80;;;;;;5087166;28;19912;-61
2022/08/17 05:43:15;;;;;;;;;;;23.90;64.00;;;;;;5070019;28;19947;-61
2022/08/17 05:45:44;;;;;;;;;;;23.90;64.20;;;;;;5086215;28;19989;-61
2022/08/17 05:48:10;;;;;;;;;;;23.90;64.40;;;;;;5091417;28;20363;-61
2022/08/17 05:50:43;;;;;;;;;;;23.90;64.50;;;;;;5075881;28;19925;-61
2022/08/17 05:53:32;;;;;;;;;;;23.80;64.50;;;;;;5069193;28;19912;-61
2022/08/17 05:56:01;;;;;;;;;;;23.80;64.70;;;;;;5075088;28;20386;-61
2022/08/17 05:58:31;;;;;;;;;;;23.80;65.00;;;;;;5068817;28;19908;-67
2022/08/17 06:00:56;;;;;;;;;;;23.80;65.40;;;;;;5078513;28;19928;-67
2022/08/17 06:03:38;;;;;;;;;;;23.70;65.40;;;;;;5090748;28;19912;-67
2022/08/17 06:06:13;;;;;;;;;;;23.70;65.50;;;;;;5089333;28;19924;-68
2022/08/17 06:09:03;;;;;;;;;;;23.70;65.80;;;;;;5078663;28;19919;-68
2022/08/17 06:11:40;;;;;;;;;;;23.60;66.00;;;;;;5080329;28;19916;-67
2022/08/17 06:14:16;;;;;;;;;;;23.60;66.20;;;;;;5082454;28;20395;-67
2022/08/17 06:16:43;;;;;;;;;;;23.60;66.40;;;;;;5066883;28;20347;-68
2022/08/17 06:19:15;;;;;;;;;;;23.70;66.20;;;;;;5076141;28;19908;-67
2022/08/17 06:21:42;;;;;;;;;;;23.70;66.10;;;;;;5089915;28;19954;-67
2022/08/17 06:24:20;;;;;;;;;;;23.80;66.20;;;;;;5076714;28;20352;-68
2022/08/17 06:26:46;;;;;;;;;;;23.80;66.20;;;;;;5075676;28;19938;-67
2022/08/17 06:29:12;;;;;;;;;;;23.80;66.10;;;;;;5080555;28;19912;-67
2022/08/17 06:31:38;;;;;;;;;;;23.80;67.00;;;;;;5090117;28;19912;-67
2022/08/17 06:34:07;;;;;;;;;;;23.70;66.60;;;;;;5090102;28;20008;-68
2022/08/17 06:36:32;;;;;;;;;;;23.80;66.80;;;;;;5089107;28;20018;-68
2022/08/17 06:38:58;;;;;;;;;;;23.70;66.80;;;;;;5080525;28;19999;-68
2022/08/17 06:41:27;;;;;;;;;;;23.80;66.90;;;;;;5090078;28;19915;-67
2022/08/17 06:44:00;;;;;;;;;;;23.80;66.90;;;;;;5085642;28;19916;-68
2022/08/17 06:46:26;;;;;;;;;;;23.80;67.00;;;;;;5089616;28;19909;-68
2022/08/17 06:49:10;;;;;;;;;;;23.90;67.30;;;;;;5089142;28;19908;-67
2022/08/17 06:51:40;;;;;;;;;;;23.90;67.50;;;;;;5083824;28;19919;-62
2022/08/17 06:54:23;;;;;;;;;;;23.90;68.10;;;;;;5084528;28;19920;-61
2022/08/17 06:56:54;;;;;;;;;;;23.90;67.40;;;;;;5089933;28;19919;-61
2022/08/17 06:59:27;;;;;;;;;;;24.00;67.50;;;;;;5090230;28;19908;-67
2022/08/17 07:01:54;;;;;;;;;;;24.00;67.50;;;;;;5070275;28;19919;-66
2022/08/17 07:04:22;;;;;;;;;;;24.10;67.40;;;;;;5086982;28;20359;-65
2022/08/17 07:08:00;;;;;;;;;;;24.10;67.30;;;;;;5065949;28;19924;-65
2022/08/17 07:09:48;;;;;;;;;;;24.20;67.00;;;;;;5080271;28;19912;-59
2022/08/17 07:12:15;;;;;;;;;;;24.40;66.90;;;;;;5061681;28;19920;-66
2022/08/17 07:14:57;;;;;;;;;;;24.50;66.80;;;;;;5050509;28;19917;-65
2022/08/17 07:17:23;;;;;;;;;;;24.50;66.60;;;;;;5058089;28;20393;-59
2022/08/17 07:19:52;;;;;;;;;;;24.50;66.50;;;;;;5059317;28;19917;-60
2022/08/17 07:22:36;;;;;;;;;;;24.50;66.50;;;;;;5060440;28;19916;-60
2022/08/17 07:25:04;;;;;;;;;;;24.50;66.70;;;;;;5085399;28;20299;-60
2022/08/17 07:27:40;;;;;;;;;;;24.40;67.10;;;;;;5072946;28;19912;-60
2022/08/17 07:30:07;;;;;;;;;;;24.40;67.50;;;;;;5068067;28;20286;-60
2022/08/17 07:32:36;;;;;;;;;;;24.40;68.10;;;;;;5073371;28;20484;-60
2022/08/17 07:35:09;;;;;;;;;;;24.40;68.20;;;;;;5065504;28;19923;-66
2022/08/17 07:37:37;;;;;;;;;;;24.40;68.30;;;;;;5076889;28;20355;-66
2022/08/17 07:40:25;;;;;;;;;;;24.50;68.10;;;;;;5073940;28;20002;-60
2022/08/17 07:43:05;;;;;;;;;;;24.60;68.00;;;;;;5070717;28;20339;-60
2022/08/17 07:48:23;;;;;;;;;;;24.80;67.50;;;;;;5063919;28;20003;-66
2022/08/17 07:50:48;;;;;;;;;;;24.80;67.00;;;;;;5073052;28;20436;-66
2022/08/17 07:53:16;;;;;;;;;;;24.80;66.80;;;;;;5065781;28;19913;-66
2022/08/17 07:55:44;;;;;;;;;;;24.90;67.30;;;;;;5065024;28;20337;-66
2022/08/17 07:58:14;;;;;;;;;;;24.90;66.30;;;;;;5064426;28;19924;-66
2022/08/17 08:00:40;;;;;;;;;;;25.00;66.00;;;;;;5065892;28;19920;-66
2022/08/17 08:03:26;;;;;;;;;;;24.90;65.60;;;;;;5066000;28;19916;-66
2022/08/17 08:05:56;;;;;;;;;;;24.90;65.50;;;;;;5086629;28;20272;-66
2022/08/17 08:08:26;;;;;;;;;;;25.00;65.50;;;;;;5080630;28;19912;-66
2022/08/17 08:11:00;;;;;;;;;;;25.00;65.20;;;;;;5087986;28;19956;-66
2022/08/17 08:13:30;;;;;;;;;;;25.00;65.20;;;;;;5073775;28;19912;-66
2022/08/17 08:16:25;;;;;;;;;;;25.00;65.20;;;;;;5068790;28;19931;-67
2022/08/17 08:18:55;;;;;;;;;;;24.90;65.10;;;;;;5084664;28;19956;-66
2022/08/17 08:21:40;;;;;;;;;;;25.00;65.00;;;;;;5074272;28;19912;-66
2022/08/17 08:24:18;;;;;;;;;;;25.10;64.90;;;;;;5067651;28;19913;-65
2022/08/17 08:26:54;;;;;;;;;;;25.10;64.80;;;;;;5082639;28;19923;-65
2022/08/17 08:29:28;;;;;;;;;;;25.20;64.70;;;;;;5067723;28;19958;-66
2022/08/17 08:32:16;;;;;;;;;;;25.30;64.30;;;;;;5075728;28;19959;-66
2022/08/17 08:34:51;;;;;;;;;;;25.40;64.10;;;;;;5092498;28;19922;-66
2022/08/17 08:37:35;;;;;;;;;;;25.50;63.90;;;;;;5091740;28;19923;-66
2022/08/17 08:40:01;;;;;;;;;;;25.70;63.60;;;;;;5077704;28;19909;-66
2022/08/17 08:42:27;;;;;;;;;;;25.80;63.30;;;;;;5087334;28;19919;-66
2022/08/17 08:44:58;;;;;;;;;;;25.90;62.70;;;;;;5092034;28;20002;-65
2022/08/17 08:47:33;;;;;;;;;;;26.00;62.50;;;;;;5079012;28;19908;-66
2022/08/17 08:49:58;;;;;;;;;;;26.00;62.40;;;;;;5088687;28;20007;-66
2022/08/17 08:52:24;;;;;;;;;;;26.10;62.30;;;;;;5059296;28;20442;-60
2022/08/17 08:54:56;;;;;;;;;;;26.20;62.10;;;;;;5073572;28;19920;-59
2022/08/17 08:57:26;;;;;;;;;;;26.30;62.10;;;;;;5086395;28;19919;-60
2022/08/17 09:00:09;;;;;;;;;;;26.40;62.00;;;;;;5080859;28;20450;-59
2022/08/17 09:02:53;;;;;;;;;;;26.50;61.80;;;;;;5074223;28;19912;-60
2022/08/17 09:05:38;;;;;;;;;;;26.60;61.60;;;;;;5066388;28;19928;-65
2022/08/17 09:08:03;;;;;;;;;;;26.70;61.40;;;;;;5065168;28;19939;-65
2022/08/17 09:10:33;;;;;;;;;;;26.70;61.40;;;;;;5070719;28;19913;-65
2022/08/17 09:13:01;;;;;;;;;;;26.60;61.40;;;;;;5074121;28;19923;-65
2022/08/17 09:15:30;;;;;;;;;;;26.60;61.40;;;;;;5071392;28;19978;-66
2022/08/17 09:18:15;;;;;;;;;;;26.70;61.20;;;;;;5070553;28;19917;-60
2022/08/17 09:20:43;;;;;;;;;;;26.70;60.90;;;;;;5067582;28;20007;-60
2022/08/17 09:23:18;;;;;;;;;;;26.80;60.90;;;;;;5069607;28;19958;-60
2022/08/17 09:25:48;;;;;;;;;;;26.80;60.80;;;;;;5071778;28;20032;-59
2022/08/17 09:28:18;;;;;;;;;;;26.80;60.80;;;;;;5064210;28;19965;-60
2022/08/17 09:30:45;;;;;;;;;;;26.80;60.50;;;;;;5069384;28;20268;-59
2022/08/17 09:33:13;;;;;;;;;;;26.90;60.50;;;;;;5072475;28;19915;-59
2022/08/17 09:35:51;;;;;;;;;;;26.90;60.50;;;;;;5072040;28;19920;-60
2022/08/17 09:38:20;;;;;;;;;;;26.90;61.40;;;;;;5065220;28;19963;-60
2022/08/17 09:40:45;;;;;;;;;;;27.00;60.70;;;;;;5069895;28;19909;-66
2022/08/17 09:43:17;;;;;;;;;;;27.00;60.70;;;;;;5066385;28;19915;-66
2022/08/17 09:45:51;;;;;;;;;;;27.10;60.50;;;;;;5070955;28;19999;-66
2022/08/17 09:48:19;;;;;;;;;;;27.20;60.30;;;;;;5062280;28;20001;-66
2022/08/17 09:50:59;;;;;;;;;;;27.20;60.30;;;;;;5067705;28;20284;-66
2022/08/17 09:53:25;;;;;;;;;;;27.10;60.40;;;;;;5065170;28;19908;-66
2022/08/17 09:55:56;;;;;;;;;;;27.20;60.40;;;;;;5071562;28;19923;-66
2022/08/17 09:58:41;;;;;;;;;;;27.20;60.20;;;;;;5071342;28;19995;-66
2022/08/17 10:01:30;;;;;;;;;;;27.30;60.10;;;;;;5072681;28;20363;-66
2022/08/17 10:03:58;;;;;;;;;;;27.20;60.00;;;;;;5067377;28;19915;-66
2022/08/17 10:06:28;;;;;;;;;;;27.20;59.80;;;;;;5069779;28;19924;-66
2022/08/17 10:09:07;;;;;;;;;;;27.20;59.80;;;;;;5072206;28;20368;-60
2022/08/17 10:12:19;;;;;;;;;;;27.10;59.70;;;;;;5073347;28;19913;-60
2022/08/17 10:14:53;;;;;;;;;;;27.20;59.70;;;;;;5066905;28;20347;-60
2022/08/17 10:17:26;;;;;;;;;;;27.20;59.60;;;;;;5070045;28;19908;-60
2022/08/17 10:19:59;;;;;;;;;;;27.30;59.50;;;;;;5064976;28;20691;-59
2022/08/17 10:28:00;;;;;;;;;;;27.30;59.30;;;;;;5063028;28;19931;-66
2022/08/17 10:30:30;;;;;;;;;;;27.30;59.30;;;;;;5067204;28;19957;-59
2022/08/17 10:33:00;;;;;;;;;;;27.20;59.40;;;;;;5068135;28;19913;-60
2022/08/17 10:35:34;;;;;;;;;;;27.20;59.40;;;;;;5076019;28;19912;-59
2022/08/17 10:38:09;;;;;;;;;;;27.20;59.40;;;;;;5074041;28;19979;-60
2022/08/17 10:40:44;;;;;;;;;;;27.20;59.40;;;;;;5067259;28;19920;-66
2022/08/17 10:43:29;;;;;;;;;;;27.20;59.40;;;;;;5068565;28;19923;-65
2022/08/17 10:46:12;;;;;;;;;;;27.20;59.50;;;;;;5069733;28;19912;-66
2022/08/17 10:48:38;;;;;;;;;;;27.20;59.50;;;;;;5069646;28;19916;-65
2022/08/17 10:51:08;;;;;;;;;;;27.20;59.50;;;;;;5060480;28;19985;-65
2022/08/17 10:53:33;;;;;;;;;;;27.20;59.50;;;;;;5070553;28;20006;-65
2022/08/17 10:56:11;;;;;;;;;;;27.10;59.50;;;;;;5069147;28;19999;-65
2022/08/17 10:58:44;;;;;;;;;;;27.10;59.70;;;;;;5067659;28;19916;-65
2022/08/17 11:01:11;;;;;;;;;;;27.00;59.80;;;;;;5067144;28;19913;-66
2022/08/17 11:03:46;;;;;;;;;;;26.90;59.80;;;;;;5066341;28;19946;-66
2022/08/17 11:06:44;;;;;;;;;;;26.90;59.90;;;;;;5066724;28;19985;-65
2022/08/17 11:09:28;;;;;;;;;;;27.00;60.00;;;;;;5068735;28;20350;-65
2022/08/17 11:12:12;;;;;;;;;;;26.90;59.90;;;;;;5068094;28;19916;-65
2022/08/17 11:14:43;;;;;;;;;;;26.90;59.90;;;;;;5067338;28;20015;-65
2022/08/17 11:17:19;;;;;;;;;;;27.00;59.90;;;;;;5064637;28;20396;-65
2022/08/17 11:20:20;;;;;;;;;;;26.90;59.80;;;;;;5085075;28;19919;-66
2022/08/17 11:23:04;;;;;;;;;;;26.90;60.00;;;;;;5008987;28;19913;-64
2022/08/17 11:25:50;;;;;;;;;;;26.80;60.00;;;;;;5074253;28;19966;-65
2022/08/17 11:28:22;;;;;;;;;;;26.80;60.70;;;;;;5079967;28;19919;-65
2022/08/17 11:30:56;;;;;;;;;;;26.70;61.10;;;;;;5077409;28;19920;-65
2022/08/17 11:33:27;;;;;;;;;;;26.60;61.60;;;;;;5082587;28;19921;-65
2022/08/17 11:36:13;;;;;;;;;;;26.60;62.10;;;;;;5082205;28;19920;-65
2022/08/17 11:38:56;;;;;;;;;;;26.50;62.50;;;;;;5077642;28;19912;-65
2022/08/17 11:41:22;;;;;;;;;;;26.40;62.80;;;;;;5082195;28;19913;-65
2022/08/17 11:44:00;;;;;;;;;;;26.40;63.30;;;;;;5084390;28;20002;-64
2022/08/17 11:52:40;;;;;;;;;;;26.40;63.50;;;;;;5082789;28;19923;-65
2022/08/17 11:55:07;;;;;;;;;;;26.40;63.70;;;;;;5080730;28;19916;-60
2022/08/17 11:57:39;;;;;;;;;;;26.40;64.10;;;;;;5083378;28;20631;-60
2022/08/17 12:00:27;;;;;;;;;;;26.30;64.60;;;;;;5070693;28;19932;-60
2022/08/17 12:03:12;;;;;;;;;;;26.30;64.90;;;;;;5071398;28;19927;-63
2022/08/17 12:05:37;;;;;;;;;;;26.10;65.40;;;;;;5072132;28;20383;-64
2022/08/17 12:08:03;;;;;;;;;;;26.00;66.40;;;;;;5084356;28;19970;-64
2022/08/17 12:10:31;;;;;;;;;;;26.00;66.90;;;;;;5077415;28;19998;-64
2022/08/17 12:12:58;;;;;;;;;;;26.00;67.10;;;;;;5082988;28;19957;-64
2022/08/17 12:15:27;;;;;;;;;;;25.90;67.70;;;;;;5078414;28;20007;-65
2022/08/17 12:17:54;;;;;;;;;;;25.90;68.40;;;;;;5078065;28;20347;-65
2022/08/17 12:20:23;;;;;;;;;;;25.80;68.70;;;;;;5079694;28;19912;-65
2022/08/17 12:23:05;;;;;;;;;;;25.80;69.20;;;;;;5076504;28;20006;-64
2022/08/17 12:25:37;;;;;;;;;;;25.70;70.00;;;;;;5071655;28;19916;-65
2022/08/17 12:28:04;;;;;;;;;;;25.60;70.10;;;;;;5077444;28;19923;-64
2022/08/17 12:30:30;;;;;;;;;;;25.50;70.40;;;;;;5080727;28;20340;-65
2022/08/17 12:32:55;;;;;;;;;;;25.50;70.80;;;;;;5083299;28;20015;-65
2022/08/17 12:35:31;;;;;;;;;;;25.40;70.90;;;;;;5066351;28;20355;-65
2022/08/17 12:37:58;;;;;;;;;;;25.30;71.20;;;;;;5078657;28;20583;-65
2022/08/17 12:40:28;;;;;;;;;;;25.30;71.40;;;;;;5078879;28;19981;-65
2022/08/17 12:42:55;;;;;;;;;;;25.10;71.50;;;;;;5074567;28;19978;-65
2022/08/17 12:45:23;;;;;;;;;;;25.00;71.70;;;;;;5075896;28;19927;-65
2022/08/17 12:47:58;;;;;;;;;;;25.00;72.00;;;;;;5079725;28;19920;-66
2022/08/17 12:50:23;;;;;;;;;;;25.10;72.20;;;;;;5076375;28;20276;-66
2022/08/17 12:52:49;;;;;;;;;;;25.10;72.00;;;;;;5083051;28;20389;-66
2022/08/17 12:55:20;;;;;;;;;;;25.10;72.00;;;;;;5076408;28;19916;-66
2022/08/17 12:57:57;;;;;;;;;;;25.10;72.10;;;;;;5078834;28;19959;-66
2022/08/17 13:00:28;;;;;;;;;;;25.10;72.40;;;;;;5077722;28;19912;-66
2022/08/17 13:03:08;;;;;;;;;;;25.10;72.50;;;;;;5079477;28;19956;-66
2022/08/17 13:05:35;;;;;;;;;;;25.10;72.50;;;;;;5068928;28;20314;-65
2022/08/17 13:08:04;;;;;;;;;;;25.10;72.50;;;;;;5073560;28;19917;-66
2022/08/17 13:10:34;;;;;;;;;;;25.10;72.30;;;;;;5069271;28;19970;-66
2022/08/17 13:13:04;;;;;;;;;;;25.10;72.50;;;;;;5069879;28;19913;-65
2022/08/17 13:15:40;;;;;;;;;;;25.10;73.00;;;;;;5074384;28;20300;-65
2022/08/17 13:18:07;;;;;;;;;;;25.00;73.10;;;;;;5074577;28;19965;-65
2022/08/17 13:20:33;;;;;;;;;;;24.90;73.30;;;;;;5086854;28;20199;-65
2022/08/17 13:23:00;;;;;;;;;;;24.80;73.40;;;;;;5079672;28;20010;-65
2022/08/17 13:25:26;;;;;;;;;;;24.80;73.60;;;;;;5075765;28;19999;-65
2022/08/17 13:27:52;;;;;;;;;;;24.70;73.80;;;;;;5079740;28;19912;-65
2022/08/17 13:30:20;;;;;;;;;;;24.60;74.10;;;;;;5081395;28;19916;-65
2022/08/17 13:32:46;;;;;;;;;;;24.50;74.30;;;;;;5086617;28;19954;-65
2022/08/17 13:35:27;;;;;;;;;;;24.50;74.50;;;;;;5063995;28;19924;-65
2022/08/17 13:38:02;;;;;;;;;;;24.50;74.50;;;;;;5071200;28;19909;-65
2022/08/17 13:40:29;;;;;;;;;;;24.50;74.40;;;;;;5079440;28;19908;-65
2022/08/17 13:42:55;;;;;;;;;;;24.50;74.40;;;;;;5070360;28;20008;-65
2022/08/17 13:45:27;;;;;;;;;;;24.50;74.30;;;;;;5068363;28;19912;-65
2022/08/17 13:48:25;;;;;;;;;;;24.50;74.40;;;;;;5066701;28;20029;-65
2022/08/17 13:50:53;;;;;;;;;;;24.60;74.80;;;;;;5039353;28;20398;-65
2022/08/17 13:53:28;;;;;;;;;;;24.60;75.40;;;;;;5069201;28;20307;-65
2022/08/17 13:55:54;;;;;;;;;;;24.60;75.40;;;;;;5065915;28;19923;-60
2022/08/17 13:58:27;;;;;;;;;;;24.60;75.50;;;;;;5069906;28;19916;-59
2022/08/17 14:00:53;;;;;;;;;;;24.60;75.70;;;;;;5068542;28;19920;-60
2022/08/17 14:03:19;;;;;;;;;;;24.70;75.60;;;;;;5068031;28;20003;-60
2022/08/17 14:05:45;;;;;;;;;;;24.70;75.80;;;;;;5067789;28;19925;-60
2022/08/17 14:08:11;;;;;;;;;;;24.70;75.80;;;;;;5065301;28;19912;-60
2022/08/17 14:10:37;;;;;;;;;;;24.70;76.00;;;;;;5068496;28;19912;-59
2022/08/17 14:13:03;;;;;;;;;;;24.70;75.80;;;;;;5068474;28;20364;-60
2022/08/17 14:15:29;;;;;;;;;;;24.80;75.90;;;;;;5075035;28;19926;-60
2022/08/17 14:17:55;;;;;;;;;;;24.90;75.80;;;;;;5061173;28;19916;-65
2022/08/17 14:20:21;;;;;;;;;;;24.90;75.80;;;;;;5066473;28;19916;-65
2022/08/17 14:22:49;;;;;;;;;;;24.90;75.50;;;;;;5068476;28;19973;-65
2022/08/17 14:25:18;;;;;;;;;;;25.00;75.40;;;;;;5069201;28;19912;-66
2022/08/17 14:27:44;;;;;;;;;;;25.00;75.60;;;;;;5066943;28;19929;-65
2022/08/17 14:30:10;;;;;;;;;;;25.00;75.70;;;;;;5068930;28;19913;-65
2022/08/17 14:32:35;;;;;;;;;;;25.10;75.70;;;;;;5066305;28;20042;-60
2022/08/17 14:35:03;;;;;;;;;;;25.10;75.60;;;;;;5068046;28;20889;-59
2022/08/17 14:37:28;;;;;;;;;;;25.10;75.60;;;;;;5064047;28;19916;-59
2022/08/17 14:39:55;;;;;;;;;;;25.20;75.70;;;;;;5066534;28;19921;-59
2022/08/17 14:42:23;;;;;;;;;;;25.30;75.50;;;;;;5067905;28;19916;-60
2022/08/17 14:44:49;;;;;;;;;;;25.40;75.40;;;;;;5074147;28;19999;-59
2022/08/17 14:47:15;;;;;;;;;;;25.50;75.20;;;;;;5064803;28;19917;-60
2022/08/17 14:49:41;;;;;;;;;;;25.50;75.00;;;;;;5068106;28;20003;-59
2022/08/17 14:52:08;;;;;;;;;;;25.50;74.80;;;;;;5066245;28;19928;-60
2022/08/17 14:54:33;;;;;;;;;;;25.60;74.60;;;;;;5064828;28;19973;-59
2022/08/17 14:56:59;;;;;;;;;;;25.70;74.50;;;;;;5058916;28;19925;-60
2022/08/17 14:59:25;;;;;;;;;;;25.80;74.10;;;;;;5069135;28;19951;-64
2022/08/17 15:01:51;;;;;;;;;;;25.90;74.10;;;;;;5068821;28;19991;-65